Time;durP1;ratioP1;P1;durP2;ratioP2;P2;SDS_P1;SDS_P2;PMS_P1;PMS_P2;Temp;Humidity;BMP_temperature;BMP_pressure;BME280_temperature;BME280_humidity;BME280_pressure;Samples;Min_cycle;Max_cycle;Signal;HPM_P1;HPM_P2
2022/12/09 00:00:10;;;;;;;;;;;;;;;8.94;52.65;99025.06;4346040;32;34456;-64
2022/12/09 00:02:39;;;;;;;;;;;;;;;9.10;52.44;99026.37;4349877;32;33847;-63
2022/12/09 00:05:07;;;;;;;;;;;;;;;9.14;51.95;99023.47;4347492;32;34246;-64
2022/12/09 00:07:35;;;;;;;;;;;;;;;9.25;52.19;99008.28;4353543;32;33149;-64
2022/12/09 00:10:03;;;;;;;;;;;;;;;9.18;52.42;99017.78;4345600;32;34181;-65
2022/12/09 00:12:31;;;;;;;;;;;;;;;9.18;52.13;99012.44;4337477;32;35031;-65
2022/12/09 00:14:58;;;;;;;;;;;;;;;9.36;51.39;99012.75;4335319;32;34139;-67
2022/12/09 00:17:25;;;;;;;;;;;;;;;8.49;53.69;99023.22;4344056;32;34272;-64
2022/12/09 00:19:53;;;;;;;;;;;;;;;8.45;54.13;99029.78;4340088;32;32170;-65
2022/12/09 00:22:20;;;;;;;;;;;;;;;8.26;54.91;99038.31;4330438;32;33993;-66
2022/12/09 00:24:47;;;;;;;;;;;;;;;8.95;52.85;99045.44;4356515;32;35441;-65
2022/12/09 00:27:15;;;;;;;;;;;;;;;7.42;57.19;99045.44;4357109;32;33734;-65
2022/12/09 00:29:42;;;;;;;;;;;;;;;7.90;56.21;99049.94;4355651;32;33253;-64
2022/12/09 00:32:10;;;;;;;;;;;;;;;7.45;57.58;99037.25;4349669;32;33855;-66
2022/12/09 00:34:37;;;;;;;;;;;;;;;8.01;56.09;99044.62;4356664;32;34222;-64
2022/12/09 00:37:05;;;;;;;;;;;;;;;8.30;55.30;99039.75;4358064;32;32992;-64
2022/12/09 00:39:32;;;;;;;;;;;;;;;8.51;54.76;99042.63;4351093;32;33115;-64
2022/12/09 00:42:00;;;;;;;;;;;;;;;8.58;54.29;99043.00;4354427;32;34118;-64
2022/12/09 00:44:28;;;;;;;;;;;;;;;8.52;54.46;99039.00;4357912;32;35166;-63
2022/12/09 00:46:55;;;;;;;;;;;;;;;8.20;55.90;99021.94;4357610;32;35113;-64
2022/12/09 00:49:23;;;;;;;;;;;;;;;8.34;55.60;99019.88;4356983;32;32603;-66
2022/12/09 00:51:52;;;;;;;;;;;;;;;8.25;55.81;99025.06;4358991;32;32618;-64
2022/12/09 00:54:21;;;;;;;;;;;;;;;8.31;55.10;99027.28;4358179;32;33640;-66
2022/12/09 00:56:49;;;;;;;;;;;;;;;8.27;55.50;99031.16;4358046;32;33292;-64
2022/12/09 00:59:17;;;;;;;;;;;;;;;8.51;54.80;99034.63;4354904;32;33495;-67
2022/12/09 01:01:44;;;;;;;;;;;;;;;8.60;54.37;99049.94;4352508;32;32471;-67
2022/12/09 01:04:12;;;;;;;;;;;;;;;8.99;53.38;99044.22;4354769;32;34362;-65
2022/12/09 01:06:40;;;;;;;;;;;;;;;8.65;54.35;99046.03;4358098;32;34185;-67
2022/12/09 01:09:07;;;;;;;;;;;;;;;9.27;52.45;99061.56;4356489;32;32825;-65
2022/12/09 01:11:35;;;;;;;;;;;;;;;8.90;53.55;99051.16;4355103;32;37753;-64
2022/12/09 01:14:02;;;;;;;;;;;;;;;8.40;55.23;99047.94;4359892;32;34157;-65
2022/12/09 01:16:31;;;;;;;;;;;;;;;9.08;53.09;99033.69;4357783;32;35197;-65
2022/12/09 01:18:59;;;;;;;;;;;;;;;8.57;54.53;99039.50;4356224;32;33405;-67
2022/12/09 01:21:26;;;;;;;;;;;;;;;9.16;52.92;99037.56;4348978;32;34204;-66
2022/12/09 01:23:54;;;;;;;;;;;;;;;9.32;52.37;99040.69;4364806;32;38879;-65
2022/12/09 01:26:22;;;;;;;;;;;;;;;9.32;52.08;99032.69;4353538;32;34599;-66
2022/12/09 01:28:51;;;;;;;;;;;;;;;9.39;52.10;99033.87;4359747;32;32016;-64
2022/12/09 01:31:20;;;;;;;;;;;;;;;9.11;52.79;99037.91;4352768;32;32994;-66
2022/12/09 01:33:48;;;;;;;;;;;;;;;9.44;51.99;99039.72;4356146;32;33173;-65
2022/12/09 01:36:19;;;;;;;;;;;;;;;9.30;52.40;99029.28;4357683;32;34308;-65
2022/12/09 01:38:47;;;;;;;;;;;;;;;9.20;53.01;99029.16;4355761;32;33361;-68
2022/12/09 01:41:15;;;;;;;;;;;;;;;9.33;52.38;99023.69;4357355;32;33725;-65
2022/12/09 01:43:42;;;;;;;;;;;;;;;9.34;52.12;99014.69;4353059;32;33866;-68
2022/12/09 01:46:10;;;;;;;;;;;;;;;9.11;53.43;99016.56;4356077;32;34593;-68
2022/12/09 01:48:39;;;;;;;;;;;;;;;9.46;51.97;99015.53;4354332;32;35032;-68
2022/12/09 01:51:08;;;;;;;;;;;;;;;9.36;52.45;99027.94;4333095;32;34383;-65
2022/12/09 01:53:37;;;;;;;;;;;;;;;8.78;53.93;99028.94;4343217;32;32898;-65
2022/12/09 01:56:05;;;;;;;;;;;;;;;9.18;52.73;99028.47;4356330;32;35241;-64
2022/12/09 01:58:33;;;;;;;;;;;;;;;9.36;52.25;99020.78;4343560;32;32963;-63
2022/12/09 02:01:00;;;;;;;;;;;;;;;8.89;53.13;99027.25;4353594;32;35127;-65
2022/12/09 02:03:28;;;;;;;;;;;;;;;9.19;52.80;99023.97;4355047;32;34604;-65
2022/12/09 02:05:56;;;;;;;;;;;;;;;9.49;51.96;99021.47;4357469;32;32850;-63
2022/12/09 02:08:23;;;;;;;;;;;;;;;9.15;53.24;99026.03;4339367;32;33495;-63
2022/12/09 02:10:57;;;;;;;;;;;;;;;9.24;52.62;99019.94;4355477;32;34058;-62
2022/12/09 02:13:32;;;;;;;;;;;;;;;9.44;51.98;99014.81;4355938;32;34525;-66
2022/12/09 02:16:00;;;;;;;;;;;;;;;9.08;53.18;99001.66;4354923;32;33612;-65
2022/12/09 02:18:41;;;;;;;;;;;;;;;9.39;52.24;99007.16;4357379;32;32799;-63
2022/12/09 02:21:20;;;;;;;;;;;;;;;8.93;53.30;99008.22;4347386;32;34120;-63
2022/12/09 02:24:10;;;;;;;;;;;;;;;8.95;53.50;99006.25;4365682;32;34202;-63
2022/12/09 02:26:44;;;;;;;;;;;;;;;9.10;53.16;99004.19;4354911;32;35133;-63
2022/12/09 02:29:33;;;;;;;;;;;;;;;8.97;53.76;99000.81;4353911;32;34484;-66
2022/12/09 02:32:19;;;;;;;;;;;;;;;8.84;54.27;99000.94;4355003;32;32957;-65
2022/12/09 02:34:57;;;;;;;;;;;;;;;8.95;53.78;99003.59;4356671;32;35710;-68
2022/12/09 02:37:32;;;;;;;;;;;;;;;8.34;55.39;99011.88;4344721;32;34507;-66
2022/12/09 02:40:01;;;;;;;;;;;;;;;8.38;55.50;99005.41;4350489;32;32347;-65
2022/12/09 02:42:33;;;;;;;;;;;;;;;7.96;56.61;98989.97;4342794;32;35440;-66
2022/12/09 02:45:03;;;;;;;;;;;;;;;8.92;54.19;98995.81;4344446;32;34355;-67
2022/12/09 02:47:31;;;;;;;;;;;;;;;8.90;54.25;98991.59;4349962;32;34211;-65
2022/12/09 02:50:00;;;;;;;;;;;;;;;9.04;53.74;98994.84;4342744;32;32982;-66
2022/12/09 02:52:30;;;;;;;;;;;;;;;9.29;53.08;99000.88;4354003;32;34195;-65
2022/12/09 02:54:59;;;;;;;;;;;;;;;9.13;53.74;98987.09;4354304;32;32970;-66
2022/12/09 02:57:27;;;;;;;;;;;;;;;9.04;54.13;98994.84;4344455;32;34157;-65
2022/12/09 02:59:54;;;;;;;;;;;;;;;8.94;54.20;98988.56;4354825;32;33336;-65
2022/12/09 03:02:35;;;;;;;;;;;;;;;8.62;55.78;98991.94;4357662;32;34331;-64
2022/12/09 03:05:09;;;;;;;;;;;;;;;8.84;54.53;98992.94;4358770;32;34083;-65
2022/12/09 03:07:41;;;;;;;;;;;;;;;8.75;55.30;98986.50;4344360;32;33473;-66
2022/12/09 03:10:11;;;;;;;;;;;;;;;8.95;54.44;98987.56;4340527;32;33255;-65
2022/12/09 03:12:38;;;;;;;;;;;;;;;9.29;53.26;98983.03;4344423;32;34707;-68
2022/12/09 03:15:06;;;;;;;;;;;;;;;9.17;53.69;98985.84;4344894;32;34586;-65
2022/12/09 03:17:34;;;;;;;;;;;;;;;9.08;53.92;99003.44;4343311;32;35172;-65
2022/12/09 03:20:03;;;;;;;;;;;;;;;9.03;54.02;99003.00;4353828;32;32944;-66
2022/12/09 03:22:33;;;;;;;;;;;;;;;8.55;55.25;99006.75;4353655;32;34003;-67
2022/12/09 03:25:04;;;;;;;;;;;;;;;8.88;54.95;99005.06;4358478;32;33893;-65
2022/12/09 03:27:34;;;;;;;;;;;;;;;8.76;55.45;99003.34;4352422;32;32781;-63
2022/12/09 03:30:03;;;;;;;;;;;;;;;9.27;53.91;98997.47;4345781;32;34542;-62
2022/12/09 03:32:31;;;;;;;;;;;;;;;9.19;54.39;98998.12;4357685;32;32778;-64
2022/12/09 03:35:02;;;;;;;;;;;;;;;9.10;54.67;98990.84;4344391;32;34422;-66
2022/12/09 03:37:29;;;;;;;;;;;;;;;9.23;54.01;98993.38;4343313;32;33004;-67
2022/12/09 03:39:57;;;;;;;;;;;;;;;9.14;54.31;98992.28;4344464;32;33520;-65
2022/12/09 03:42:30;;;;;;;;;;;;;;;9.17;54.16;98986.69;4356207;32;32796;-64
2022/12/09 03:44:59;;;;;;;;;;;;;;;9.00;54.74;98972.06;4356322;32;33932;-64
2022/12/09 03:47:30;;;;;;;;;;;;;;;9.16;54.58;98986.84;4343255;32;33035;-65
2022/12/09 03:49:58;;;;;;;;;;;;;;;8.66;56.24;98989.88;4359706;32;32906;-63
2022/12/09 03:52:26;;;;;;;;;;;;;;;7.47;59.90;98992.69;4360011;32;33896;-63
2022/12/09 03:54:57;;;;;;;;;;;;;;;8.35;57.95;98994.09;4344078;32;34434;-63
2022/12/09 03:57:25;;;;;;;;;;;;;;;8.36;57.74;98995.78;4344818;32;34183;-62
2022/12/09 03:59:54;;;;;;;;;;;;;;;8.67;56.69;98985.41;4342415;32;33576;-66
2022/12/09 04:02:22;;;;;;;;;;;;;;;8.57;57.08;98982.59;4344231;32;33803;-66
2022/12/09 04:04:50;;;;;;;;;;;;;;;8.49;57.70;98982.38;4342248;32;32862;-67
2022/12/09 04:07:17;;;;;;;;;;;;;;;8.36;58.18;98969.12;4358281;32;34286;-66
2022/12/09 04:09:45;;;;;;;;;;;;;;;8.28;58.43;98977.72;4343117;32;31781;-66
2022/12/09 04:12:12;;;;;;;;;;;;;;;8.47;57.46;98985.16;4359428;32;33966;-66
2022/12/09 04:14:40;;;;;;;;;;;;;;;8.66;57.24;98978.38;4357903;32;34943;-66
2022/12/09 04:17:07;;;;;;;;;;;;;;;8.71;57.15;98970.88;4359349;32;34054;-65
2022/12/09 04:19:34;;;;;;;;;;;;;;;8.61;57.31;98973.41;4356832;32;32041;-65
2022/12/09 04:22:03;;;;;;;;;;;;;;;8.37;58.50;98968.12;4357445;32;35298;-66
2022/12/09 04:24:30;;;;;;;;;;;;;;;8.93;56.45;98970.00;4356635;32;33022;-65
2022/12/09 04:26:58;;;;;;;;;;;;;;;8.81;56.74;98970.00;4356087;32;33728;-65
2022/12/09 04:29:25;;;;;;;;;;;;;;;8.59;57.73;98973.53;4356768;32;33732;-67
2022/12/09 04:31:52;;;;;;;;;;;;;;;9.12;55.98;98972.00;4357660;32;33752;-66
2022/12/09 04:34:21;;;;;;;;;;;;;;;8.55;57.87;98974.75;4356853;32;34259;-65
2022/12/09 04:36:48;;;;;;;;;;;;;;;7.54;60.84;98974.44;4358192;32;34404;-66
2022/12/09 04:39:16;;;;;;;;;;;;;;;8.54;57.92;98962.38;4356820;32;33077;-66
2022/12/09 04:41:43;;;;;;;;;;;;;;;8.89;57.01;98956.03;4360093;32;34181;-66
2022/12/09 04:44:11;;;;;;;;;;;;;;;8.39;58.36;98968.91;4357635;32;34595;-65
2022/12/09 04:46:38;;;;;;;;;;;;;;;8.46;58.20;98959.47;4357759;32;34356;-66
2022/12/09 04:49:06;;;;;;;;;;;;;;;7.83;60.56;98958.97;4355372;32;33795;-66
2022/12/09 04:51:34;;;;;;;;;;;;;;;8.38;58.42;98959.22;4357805;32;32728;-67
2022/12/09 04:54:06;;;;;;;;;;;;;;;8.66;57.78;98968.53;4356155;32;35200;-67
2022/12/09 04:56:33;;;;;;;;;;;;;;;8.82;57.60;98958.34;4357455;32;35337;-65
2022/12/09 04:59:01;;;;;;;;;;;;;;;8.85;56.96;98963.44;4355126;32;33133;-65
2022/12/09 05:01:28;;;;;;;;;;;;;;;8.96;56.96;98954.59;4358224;32;33668;-66
2022/12/09 05:03:57;;;;;;;;;;;;;;;8.94;57.08;98959.19;4357385;32;35291;-65
2022/12/09 05:06:25;;;;;;;;;;;;;;;8.28;58.67;98958.19;4348996;32;33635;-64
2022/12/09 05:08:53;;;;;;;;;;;;;;;8.38;59.20;98961.91;4354967;32;33990;-66
2022/12/09 05:11:22;;;;;;;;;;;;;;;7.60;60.94;98960.69;4359618;32;32779;-65
2022/12/09 05:13:51;;;;;;;;;;;;;;;7.60;61.88;98966.00;4356349;32;34166;-67
2022/12/09 05:16:19;;;;;;;;;;;;;;;8.35;59.49;98964.75;4355975;32;35655;-65
2022/12/09 05:18:47;;;;;;;;;;;;;;;8.66;58.20;98963.22;4352627;32;31369;-65
2022/12/09 05:21:16;;;;;;;;;;;;;;;8.50;58.67;98954.72;4357565;32;35377;-65
2022/12/09 05:23:44;;;;;;;;;;;;;;;8.48;59.05;98951.34;4357315;32;33832;-65
2022/12/09 05:26:13;;;;;;;;;;;;;;;8.51;59.13;98954.63;4358098;32;34405;-65
2022/12/09 05:28:41;;;;;;;;;;;;;;;7.98;61.14;98956.94;4358590;32;33372;-65
2022/12/09 05:31:10;;;;;;;;;;;;;;;8.21;60.19;98956.97;4354514;32;34356;-65
2022/12/09 05:33:38;;;;;;;;;;;;;;;8.49;58.81;98955.72;4351895;32;33025;-66
2022/12/09 05:36:09;;;;;;;;;;;;;;;8.20;59.86;98964.13;4358708;32;34703;-66
2022/12/09 05:38:37;;;;;;;;;;;;;;;7.75;61.47;98958.69;4356985;32;32919;-66
2022/12/09 05:41:05;;;;;;;;;;;;;;;8.01;60.84;98954.03;4355679;32;34628;-66
2022/12/09 05:43:33;;;;;;;;;;;;;;;8.01;60.33;98953.19;4355415;32;34844;-67
2022/12/09 05:46:02;;;;;;;;;;;;;;;7.53;62.93;98945.28;4357603;32;35063;-66
2022/12/09 05:48:30;;;;;;;;;;;;;;;7.64;62.65;98943.53;4357413;32;33245;-66
2022/12/09 05:50:58;;;;;;;;;;;;;;;7.97;61.38;98946.41;4354486;32;34285;-66
2022/12/09 05:53:26;;;;;;;;;;;;;;;7.73;62.09;98947.28;4363245;32;34177;-65
2022/12/09 05:55:53;;;;;;;;;;;;;;;7.39;63.36;98938.34;4353718;32;34314;-68
2022/12/09 05:58:21;;;;;;;;;;;;;;;7.25;64.21;98947.31;4356631;32;33894;-64
2022/12/09 06:00:49;;;;;;;;;;;;;;;7.46;63.14;98936.91;4356780;32;34718;-66
2022/12/09 06:03:17;;;;;;;;;;;;;;;7.83;61.99;98940.31;4355359;32;33146;-65
2022/12/09 06:05:45;;;;;;;;;;;;;;;7.09;64.85;98936.09;4352662;32;35220;-65
2022/12/09 06:08:13;;;;;;;;;;;;;;;7.69;63.13;98932.50;4357490;32;32714;-66
2022/12/09 06:10:41;;;;;;;;;;;;;;;7.77;63.10;98931.91;4354828;32;36746;-65
2022/12/09 06:13:08;;;;;;;;;;;;;;;7.44;64.50;98934.34;4356519;32;35494;-66
2022/12/09 06:15:35;;;;;;;;;;;;;;;8.03;62.09;98932.59;4351977;32;34825;-65
2022/12/09 06:18:03;;;;;;;;;;;;;;;8.21;61.16;98927.66;4356627;32;33353;-66
2022/12/09 06:20:32;;;;;;;;;;;;;;;7.84;62.41;98933.16;4354941;32;34569;-65
2022/12/09 06:22:59;;;;;;;;;;;;;;;7.57;63.30;98930.75;4350972;32;34033;-66
2022/12/09 06:25:27;;;;;;;;;;;;;;;7.39;63.50;98928.53;4341514;32;32929;-65
2022/12/09 06:27:55;;;;;;;;;;;;;;;7.27;64.54;98933.91;4358620;32;32853;-68
2022/12/09 06:30:22;;;;;;;;;;;;;;;7.40;63.77;98932.03;4356489;32;34194;-66
2022/12/09 06:32:50;;;;;;;;;;;;;;;7.91;62.19;98934.37;4358189;32;34499;-66
2022/12/09 06:35:17;;;;;;;;;;;;;;;7.20;65.26;98934.37;4358371;32;33687;-68
2022/12/09 06:37:45;;;;;;;;;;;;;;;7.03;65.60;98937.44;4358873;32;32132;-66
2022/12/09 06:40:13;;;;;;;;;;;;;;;7.10;65.84;98933.34;4357820;32;33616;-65
2022/12/09 06:42:40;;;;;;;;;;;;;;;7.88;62.87;98934.63;4356891;32;36196;-65
2022/12/09 06:45:08;;;;;;;;;;;;;;;7.56;64.21;98934.41;4358183;32;34283;-65
2022/12/09 06:47:36;;;;;;;;;;;;;;;8.20;62.21;98933.97;4357625;32;33645;-65
2022/12/09 06:50:04;;;;;;;;;;;;;;;7.75;62.87;98924.06;4358881;32;33957;-65
2022/12/09 06:52:34;;;;;;;;;;;;;;;7.64;62.89;98927.53;4356749;32;33295;-65
2022/12/09 06:55:02;;;;;;;;;;;;;;;8.02;62.63;98925.56;4359521;32;34962;-64
2022/12/09 06:57:30;;;;;;;;;;;;;;;8.26;62.13;98918.34;4358459;32;34382;-65
2022/12/09 06:59:57;;;;;;;;;;;;;;;7.57;64.01;98918.28;4358276;32;33630;-64
2022/12/09 07:02:25;;;;;;;;;;;;;;;8.27;62.14;98920.03;4355997;32;33921;-65
2022/12/09 07:04:58;;;;;;;;;;;;;;;8.28;62.21;98920.84;4346467;32;32734;-64
2022/12/09 07:07:26;;;;;;;;;;;;;;;8.38;61.84;98916.56;4352423;32;34329;-66
2022/12/09 07:09:53;;;;;;;;;;;;;;;8.53;61.47;98915.31;4358538;32;34202;-64
2022/12/09 07:12:21;;;;;;;;;;;;;;;8.61;61.34;98912.06;4357134;32;32217;-63
2022/12/09 07:14:48;;;;;;;;;;;;;;;7.73;64.47;98919.81;4351293;32;34003;-63
2022/12/09 07:17:16;;;;;;;;;;;;;;;7.69;64.25;98919.19;4360246;32;32820;-62
2022/12/09 07:19:44;;;;;;;;;;;;;;;7.35;66.27;98911.09;4359338;32;33160;-64
2022/12/09 07:22:13;;;;;;;;;;;;;;;7.83;64.57;98912.81;4355497;32;34740;-64
2022/12/09 07:24:40;;;;;;;;;;;;;;;8.43;62.28;98908.19;4358162;32;34413;-65
2022/12/09 07:27:08;;;;;;;;;;;;;;;7.74;65.16;98917.03;4354735;32;33251;-65
2022/12/09 07:29:43;;;;;;;;;;;;;;;7.28;66.81;98917.81;4349115;32;35176;-65
2022/12/09 07:32:11;;;;;;;;;;;;;;;6.46;70.14;98917.56;4357417;32;32276;-65
2022/12/09 07:34:38;;;;;;;;;;;;;;;5.81;74.09;98925.63;4352883;32;34739;-64
2022/12/09 07:37:06;;;;;;;;;;;;;;;5.75;74.69;98924.25;4351165;32;31933;-63
2022/12/09 07:39:33;;;;;;;;;;;;;;;6.90;69.79;98913.53;4361390;32;35275;-64
2022/12/09 07:42:01;;;;;;;;;;;;;;;6.84;69.91;98913.09;4361220;32;33042;-63
2022/12/09 07:44:29;;;;;;;;;;;;;;;7.33;68.69;98907.69;4360258;32;34334;-63
2022/12/09 07:46:57;;;;;;;;;;;;;;;7.19;68.30;98907.84;4358214;32;34418;-64
2022/12/09 07:49:24;;;;;;;;;;;;;;;6.75;70.48;98902.19;4361261;32;32643;-63
2022/12/09 07:51:52;;;;;;;;;;;;;;;7.29;68.60;98911.56;4360037;32;35229;-64
2022/12/09 07:54:20;;;;;;;;;;;;;;;7.29;68.34;98908.00;4361478;32;33848;-65
2022/12/09 07:56:47;;;;;;;;;;;;;;;7.75;66.55;98908.06;4361185;32;33428;-65
2022/12/09 07:59:15;;;;;;;;;;;;;;;7.86;66.21;98913.41;4362471;32;33923;-65
2022/12/09 08:01:43;;;;;;;;;;;;;;;8.23;64.53;98907.06;4361778;32;32769;-64
2022/12/09 08:04:11;;;;;;;;;;;;;;;8.14;64.85;98895.28;4362002;32;33588;-63
2022/12/09 08:06:39;;;;;;;;;;;;;;;7.88;66.34;98905.31;4358688;32;33255;-64
2022/12/09 08:09:07;;;;;;;;;;;;;;;8.12;65.12;98899.88;4361660;32;35268;-65
2022/12/09 08:11:35;;;;;;;;;;;;;;;7.91;66.00;98894.44;4362312;32;35200;-64
2022/12/09 08:14:04;;;;;;;;;;;;;;;6.91;69.00;98901.91;4361969;32;32706;-64
2022/12/09 08:16:38;;;;;;;;;;;;;;;6.23;72.93;98889.97;4361857;32;33376;-63
2022/12/09 08:19:06;;;;;;;;;;;;;;;6.29;73.56;98886.88;4360983;32;34076;-64
2022/12/09 08:21:34;;;;;;;;;;;;;;;7.19;70.24;98884.78;4359327;32;34230;-64
2022/12/09 08:24:04;;;;;;;;;;;;;;;6.94;69.85;98884.88;4360064;32;34440;-64
2022/12/09 08:26:32;;;;;;;;;;;;;;;6.86;71.35;98884.59;4361673;32;34215;-65
2022/12/09 08:29:00;;;;;;;;;;;;;;;6.96;71.05;98883.78;4357853;32;35957;-64
2022/12/09 08:31:28;;;;;;;;;;;;;;;6.56;73.36;98879.69;4361765;32;33686;-64
2022/12/09 08:33:57;;;;;;;;;;;;;;;6.83;72.18;98876.84;4357875;32;34980;-64
2022/12/09 08:36:25;;;;;;;;;;;;;;;7.89;67.90;98875.88;4361284;32;32269;-64
2022/12/09 08:38:53;;;;;;;;;;;;;;;7.70;68.77;98864.94;4361112;32;34205;-70
2022/12/09 08:41:33;;;;;;;;;;;;;;;7.90;67.55;98863.44;4360059;32;34310;-66
2022/12/09 08:44:15;;;;;;;;;;;;;;;7.32;69.41;98870.53;4359178;32;33082;-65
2022/12/09 08:46:45;;;;;;;;;;;;;;;6.63;73.16;98867.66;4361833;32;33258;-66
2022/12/09 08:49:16;;;;;;;;;;;;;;;7.04;70.05;98861.12;4356468;32;35661;-64
2022/12/09 08:51:45;;;;;;;;;;;;;;;7.15;71.43;98859.34;4357864;32;34033;-65
2022/12/09 08:54:13;;;;;;;;;;;;;;;7.73;68.77;98855.88;4357030;32;33017;-64
2022/12/09 08:56:45;;;;;;;;;;;;;;;8.07;67.06;98852.28;4355687;32;33178;-66
2022/12/09 08:59:13;;;;;;;;;;;;;;;7.33;69.66;98850.94;4358247;32;32684;-66
2022/12/09 09:01:40;;;;;;;;;;;;;;;7.69;68.82;98848.13;4355338;32;33049;-65
2022/12/09 09:04:10;;;;;;;;;;;;;;;7.69;68.59;98848.13;4358500;32;32466;-66
2022/12/09 09:06:38;;;;;;;;;;;;;;;7.03;71.21;98835.44;4357650;32;34459;-64
2022/12/09 09:09:07;;;;;;;;;;;;;;;7.67;68.46;98830.56;4357010;32;34202;-65
2022/12/09 09:11:35;;;;;;;;;;;;;;;7.30;69.59;98833.38;4363650;32;32859;-65
2022/12/09 09:14:04;;;;;;;;;;;;;;;7.08;70.14;98833.31;4332126;32;927559;-65
2022/12/09 09:16:32;;;;;;;;;;;;;;;6.39;72.53;98833.03;4357162;32;32903;-65
2022/12/09 09:19:01;;;;;;;;;;;;;;;5.46;77.02;98841.28;4357053;32;34916;-64
2022/12/09 09:21:30;;;;;;;;;;;;;;;5.39;79.45;98845.28;4359494;32;34256;-64
2022/12/09 09:23:58;;;;;;;;;;;;;;;5.77;77.63;98834.69;4358444;32;34137;-65
2022/12/09 09:26:26;;;;;;;;;;;;;;;5.51;79.24;98831.19;4358579;32;33331;-65
2022/12/09 09:28:54;;;;;;;;;;;;;;;7.07;72.56;98818.31;4341804;32;32689;-65
2022/12/09 09:31:22;;;;;;;;;;;;;;;7.54;70.14;98819.16;4356489;32;35568;-66
2022/12/09 09:33:50;;;;;;;;;;;;;;;7.06;72.26;98819.25;4360401;32;34114;-65
2022/12/09 09:36:21;;;;;;;;;;;;;;;6.98;71.80;98819.84;4358530;32;31892;-65
2022/12/09 09:38:49;;;;;;;;;;;;;;;7.62;69.40;98804.28;4359675;32;34170;-64
2022/12/09 09:41:25;;;;;;;;;;;;;;;7.69;69.08;98804.66;4356682;32;35851;-68
2022/12/09 09:43:53;;;;;;;;;;;;;;;7.86;68.41;98806.00;4359842;32;33958;-66
2022/12/09 09:46:38;;;;;;;;;;;;;;;7.92;68.26;98797.53;4350438;32;31905;-64
2022/12/09 09:49:08;;;;;;;;;;;;;;;8.41;66.33;98801.66;4359307;32;32994;-66
2022/12/09 09:51:36;;;;;;;;;;;;;;;7.66;68.60;98796.91;4358914;32;33835;-67
2022/12/09 09:54:04;;;;;;;;;;;;;;;7.99;67.40;98792.56;4361578;32;34792;-64
2022/12/09 09:56:39;;;;;;;;;;;;;;;8.10;67.11;98781.91;4346137;32;33323;-63
2022/12/09 09:59:10;;;;;;;;;;;;;;;7.68;69.03;98781.66;4347388;32;34530;-64
2022/12/09 10:01:38;;;;;;;;;;;;;;;8.00;67.37;98771.12;4358210;32;34415;-63
2022/12/09 10:04:35;;;;;;;;;;;;;;;7.93;68.08;98767.28;4360347;32;34442;-64
2022/12/09 10:07:21;;;;;;;;;;;;;;;7.85;68.01;98761.69;4320345;32;33292;-65
2022/12/09 10:09:58;;;;;;;;;;;;;;;6.86;72.08;98756.91;4360533;32;34573;-64
2022/12/09 10:12:31;;;;;;;;;;;;;;;7.71;69.13;98746.81;4362004;32;35463;-65
2022/12/09 10:15:03;;;;;;;;;;;;;;;7.74;68.77;98732.38;4358500;32;35233;-64
2022/12/09 10:17:33;;;;;;;;;;;;;;;7.03;71.14;98732.56;4342612;32;31688;-64
2022/12/09 10:20:08;;;;;;;;;;;;;;;7.11;70.97;98716.00;4359462;32;33624;-63
2022/12/09 10:22:57;;;;;;;;;;;;;;;7.19;70.82;98714.44;4346032;32;35297;-65
2022/12/09 10:25:26;;;;;;;;;;;;;;;7.03;71.75;98700.63;4358655;32;34382;-66
2022/12/09 10:28:00;;;;;;;;;;;;;;;6.82;72.96;98702.25;4361254;32;33263;-63
2022/12/09 10:30:28;;;;;;;;;;;;;;;6.64;73.35;98696.50;4362937;32;33840;-64
2022/12/09 10:33:08;;;;;;;;;;;;;;;6.70;73.31;98672.97;4362301;32;34415;-64
2022/12/09 10:35:36;;;;;;;;;;;;;;;6.71;73.63;98665.84;4349963;32;34393;-64
2022/12/09 10:38:08;;;;;;;;;;;;;;;6.78;73.39;98659.09;4359737;32;32705;-66
2022/12/09 10:40:44;;;;;;;;;;;;;;;6.17;75.67;98656.56;4357195;32;35251;-65
2022/12/09 10:43:38;;;;;;;;;;;;;;;6.51;73.87;98644.25;4360206;32;34254;-63
2022/12/09 10:46:10;;;;;;;;;;;;;;;6.56;74.45;98635.94;4361806;32;33886;-65
2022/12/09 10:48:47;;;;;;;;;;;;;;;6.29;75.05;98630.88;4360486;32;33943;-64
2022/12/09 10:51:17;;;;;;;;;;;;;;;6.66;73.65;98620.97;4360998;32;34135;-65
2022/12/09 10:53:50;;;;;;;;;;;;;;;6.62;74.58;98629.31;4351509;32;32918;-64
2022/12/09 10:56:21;;;;;;;;;;;;;;;6.67;74.21;98627.16;4359949;32;35368;-64
2022/12/09 10:58:48;;;;;;;;;;;;;;;6.81;74.23;98624.28;4363031;32;33588;-64
2022/12/09 11:01:17;;;;;;;;;;;;;;;6.16;77.45;98622.13;4359586;32;34138;-64
2022/12/09 11:03:49;;;;;;;;;;;;;;;6.62;74.83;98614.22;4347672;32;34125;-64
2022/12/09 11:06:24;;;;;;;;;;;;;;;6.85;74.02;98609.78;4361487;32;33556;-64
2022/12/09 11:08:56;;;;;;;;;;;;;;;6.45;75.55;98598.69;4350704;32;31815;-65
2022/12/09 11:11:57;;;;;;;;;;;;;;;6.70;74.70;98587.88;4359532;32;33155;-65
2022/12/09 11:14:33;;;;;;;;;;;;;;;6.07;77.96;98589.16;4344726;32;34053;-65
2022/12/09 11:17:14;;;;;;;;;;;;;;;6.69;75.98;98588.00;4356455;32;34899;-65
2022/12/09 11:19:44;;;;;;;;;;;;;;;7.08;73.27;98573.38;4362121;32;32601;-65
2022/12/09 11:22:13;;;;;;;;;;;;;;;6.71;74.70;98570.97;4355106;32;34081;-65
2022/12/09 11:24:41;;;;;;;;;;;;;;;6.84;74.43;98572.66;4347501;32;33923;-65
2022/12/09 11:27:26;;;;;;;;;;;;;;;6.99;73.05;98569.63;4360791;32;33606;-65
2022/12/09 11:30:10;;;;;;;;;;;;;;;7.22;72.79;98570.50;4358372;32;33059;-65
2022/12/09 11:32:58;;;;;;;;;;;;;;;7.03;73.33;98572.94;4356790;32;34190;-65
2022/12/09 11:35:29;;;;;;;;;;;;;;;7.38;72.07;98567.47;4359744;32;34267;-65
2022/12/09 11:37:58;;;;;;;;;;;;;;;7.07;73.03;98571.69;4356407;32;34899;-65
2022/12/09 11:40:26;;;;;;;;;;;;;;;7.09;73.46;98566.25;4344523;32;33615;-65
2022/12/09 11:42:54;;;;;;;;;;;;;;;7.60;71.17;98563.88;4348096;32;33993;-65
2022/12/09 11:45:21;;;;;;;;;;;;;;;7.31;72.28;98560.06;4356855;32;35235;-65
2022/12/09 11:47:49;;;;;;;;;;;;;;;7.66;71.15;98558.06;4358797;32;33986;-65
2022/12/09 11:50:40;;;;;;;;;;;;;;;6.79;74.09;98550.91;4349562;32;34414;-65
2022/12/09 11:53:11;;;;;;;;;;;;;;;7.28;72.98;98558.50;4344447;32;33929;-65
2022/12/09 11:55:46;;;;;;;;;;;;;;;7.41;72.03;98553.87;4358876;32;35171;-65
2022/12/09 11:58:24;;;;;;;;;;;;;;;7.47;71.81;98547.22;4359781;32;33801;-65
2022/12/09 12:00:54;;;;;;;;;;;;;;;7.27;72.09;98546.16;4356662;32;33322;-65
2022/12/09 12:03:22;;;;;;;;;;;;;;;7.73;71.16;98528.25;4343134;32;33028;-65
2022/12/09 12:05:51;;;;;;;;;;;;;;;7.76;70.18;98514.69;4345444;32;35384;-66
2022/12/09 12:08:21;;;;;;;;;;;;;;;7.61;71.08;98512.34;4354232;32;34264;-65
2022/12/09 12:10:55;;;;;;;;;;;;;;;7.33;71.97;98521.72;4356702;32;32967;-65
2022/12/09 12:13:23;;;;;;;;;;;;;;;7.19;72.77;98527.28;4361287;32;34292;-66
2022/12/09 12:15:59;;;;;;;;;;;;;;;6.82;74.39;98530.22;4359231;32;34437;-65
2022/12/09 12:18:27;;;;;;;;;;;;;;;7.14;73.11;98534.81;4360389;32;33885;-65
2022/12/09 12:21:01;;;;;;;;;;;;;;;7.51;71.57;98529.16;4351797;32;34390;-65
2022/12/09 12:23:45;;;;;;;;;;;;;;;7.07;73.25;98526.47;4357948;32;34258;-66
2022/12/09 12:26:15;;;;;;;;;;;;;;;7.37;72.47;98511.66;4359261;32;33114;-65
2022/12/09 12:28:42;;;;;;;;;;;;;;;7.19;72.78;98501.53;4350893;32;34008;-65
2022/12/09 12:31:18;;;;;;;;;;;;;;;7.34;72.73;98496.78;4361443;32;33216;-66
2022/12/09 12:33:57;;;;;;;;;;;;;;;7.08;74.73;98498.87;4361687;32;35223;-66
2022/12/09 12:36:54;;;;;;;;;;;;;;;7.02;74.14;98496.72;4356171;32;33743;-66
2022/12/09 12:39:36;;;;;;;;;;;;;;;7.14;73.52;98481.59;4352554;32;33333;-66
2022/12/09 12:42:06;;;;;;;;;;;;;;;6.94;74.72;98504.47;4356813;32;33608;-67
2022/12/09 12:47:20;;;;;;;;;;;;;;;6.99;74.35;98491.63;4360057;32;35543;-67
2022/12/09 12:49:47;;;;;;;;;;;;;;;7.40;71.95;98492.78;4359705;32;33991;-66
2022/12/09 12:52:29;;;;;;;;;;;;;;;6.97;72.91;98498.91;4355825;32;33059;-66
2022/12/09 12:55:35;;;;;;;;;;;;;;;7.21;73.07;98470.31;4358952;32;34115;-67
2022/12/09 12:58:22;;;;;;;;;;;;;;;7.54;71.41;98473.84;4359544;32;35476;-67
2022/12/09 13:01:08;;;;;;;;;;;;;;;6.45;75.48;98471.97;4356225;32;33625;-67
2022/12/09 13:03:38;;;;;;;;;;;;;;;6.66;75.24;98474.75;4359542;32;32968;-66
2022/12/09 13:06:07;;;;;;;;;;;;;;;6.65;75.84;98481.03;4357279;32;33250;-66
2022/12/09 13:08:36;;;;;;;;;;;;;;;7.18;73.72;98465.25;4354920;32;34080;-66
2022/12/09 13:11:06;;;;;;;;;;;;;;;6.75;75.08;98470.50;4357625;32;34958;-66
2022/12/09 13:13:40;;;;;;;;;;;;;;;6.75;75.52;98450.09;4345876;32;32495;-67
2022/12/09 13:16:23;;;;;;;;;;;;;;;7.10;74.24;98457.06;4350048;32;33767;-66